Bridgeport, WA (98813)

9:26 PM PDT on July 31, 2014 (GMT -0700)
KWABREWS2 Elev 1004 ft | 48.15 °N, 119.69 °W | Change Station
Active Advisory: Flash Flood Watch, Fire Weather Watch Active Notice: Record Report

Current weather conditions updated 1 second ago

Clear
Clear
87.2 °F
Feels Like 84 °F
N
3.0
Wind Variable Wind from NNW
Gusts 8.0 mph

Tomorrow is forecast to be nearly the same temperature as today.

Today
High -- | Low -- °F
--% Chance of Precip.
Yesterday
High -- | Low -- °F
Precip. -- in
5:33 AM 8:35 PM
Waxing Crescent, 23% visible
Pressure 29.88 in
Visibility 8.0 miles
Clouds Clear
Heat Index 84 °F
Dew Point 32 °F
Humidity 14%
Rainfall 0.00 in
Snow Depth Not available.
UV 0.0 out of 12
Pollen 6.50 out of 12
Air Quality Not available.
Flu Activity Not available.
METAR KOMK 010353Z AUTO 28004KT 8SM CLR 25/M01 A2991 RMK AO2 SLP119 T02501006

More Conditions Fewer Conditions

Pressure 29.88 in
Visibility 8.0 miles
Clouds Clear
Heat Index 84 °F
Dew Point 32 °F
Humidity 14%
Rainfall 0.00 in
Snow Depth Not available.
UV 0.0 out of 12
Pollen 6.50 out of 12
Air Quality Not available.
Flu Activity Not available.
METAR KOMK 010353Z AUTO 28004KT 8SM CLR 25/M01 A2991 RMK AO2 SLP119 T02501006

More Conditions Fewer Conditions

10-Day Weather Forecast

Almanac

Astronomy

Jul. 31, 2014 Rise Set
Actual Time 5:33 AM PDT 8:35 PM PDT
Civil Twilight 4:57 AM PDT 9:11 PM PDT
Nautical Twilight 4:09 AM PDT 9:59 PM PDT
Astronomical Twilight 3:11 AM PDT 10:56 PM PDT
Moon 10:30 AM PDT (7/31) 10:24 PM PDT (7/31)
Length of Visible Light 16h 14m
Length of Day
15h 01m
Tomorrow will be 2m 42s shorter.
Waxing Crescent, 23% of the Moon is Illuminated
Aug 1
Waxing Crescent
Aug 3
First Quarter
Aug 10
Full
Aug 17
Last Quarter
Aug 25
New

Today's Extremes

State Highs State Lows

Community

WunderPhotos

Upload Photos

1,739,510 photos uploaded!

Nearby

Snow Depth

Station Depth Elevation
Moses Mountain 1 in 5300 ft
Lyman Lake 1 in 5900 ft
Trough 0 in 5300 ft
Grouse Camp 0 in 5380 ft
Harts Pass 0 in 6500 ft

Earthquake Activity

City Distance Mag. Time & Date
No recent earthquake activity has been reported nearby.
Minimum magnitude displayed is 2.5.

Coastal Water Temperatures

Place Temperature
No Stations Reporting

Nearby Weather Stations

Station Location Temp. Heat Index Dew Point Humidity Wind Precip. Elev Updated Type
Brewster, WA 87.2 °F 84 °F 32 °F 14% NNW  at  3.0 mph 0.00 in / hr 1004 ft 9:26 PM PDT Rapid Fire
APRSWXNET Chelan Area, Chelan, WA 81.7 °F 80 °F 36 °F 19% NNW  at  4.0 mph 0.00 in / hr 1169 ft 9:25 PM PDT Rapid Fire
The Highlands, Chelan, WA 86.1 °F 83 °F 39 °F 19% SW  at  0.0 mph 0.00 in / hr 1580 ft 9:11 PM PDT Normal
MesoWest Coulee Dam West , Electric City, WA 86 °F 83 °F 21 °F 9% West  at  1 mph 0.00 in / hr 2562 ft 8:10 PM PDT MADIS
RAWS LEECHER WA, Carlton, WA 79 °F 78 °F 22 °F 12% SSW  at  3 mph 0.00 in / hr 4991 ft 8:25 PM PDT MADIS

Show More Stations Show Fewer Stations